Time;durP1;ratioP1;P1;durP2;ratioP2;P2;SDS_P1;SDS_P2;PMS_P1;PMS_P2;Temp;Humidity;BMP_temperature;BMP_pressure;BME280_temperature;BME280_humidity;BME280_pressure;Samples;Min_cycle;Max_cycle;Signal;HPM_P1;HPM_P2
2023/12/27 00:01:37;;;;;;;;;;;;;;;4.99;100.00;102070.78;5009884;28;19965;-68
2023/12/27 00:04:02;;;;;;;;;;;;;;;4.96;100.00;102074.47;5013542;28;19921;-68
2023/12/27 00:06:27;;;;;;;;;;;;;;;4.94;100.00;102076.38;5007146;28;20475;-68
2023/12/27 00:08:52;;;;;;;;;;;;;;;4.92;100.00;102064.25;5012750;28;20013;-68
2023/12/27 00:11:18;;;;;;;;;;;;;;;4.88;100.00;102063.59;5013743;28;19975;-68
2023/12/27 00:13:43;;;;;;;;;;;;;;;4.84;100.00;102058.66;5014176;28;19975;-67
2023/12/27 00:16:09;;;;;;;;;;;;;;;4.81;100.00;102051.81;5009405;28;19928;-67
2023/12/27 00:18:34;;;;;;;;;;;;;;;4.80;100.00;102046.66;5018260;28;19921;-69
2023/12/27 00:21:00;;;;;;;;;;;;;;;4.82;100.00;102045.59;5014390;28;19921;-69
2023/12/27 00:23:26;;;;;;;;;;;;;;;4.82;100.00;102047.38;5015375;28;19945;-68
2023/12/27 00:25:51;;;;;;;;;;;;;;;4.82;100.00;102057.91;5008690;28;19925;-67
2023/12/27 00:28:16;;;;;;;;;;;;;;;4.78;100.00;102062.53;5011823;28;19921;-67
2023/12/27 00:30:42;;;;;;;;;;;;;;;4.69;100.00;102070.22;5014213;28;19932;-68
2023/12/27 00:33:07;;;;;;;;;;;;;;;4.64;100.00;102068.75;5020921;28;19921;-68
2023/12/27 00:35:32;;;;;;;;;;;;;;;4.60;100.00;102067.22;5022158;28;21632;-67
2023/12/27 00:37:57;;;;;;;;;;;;;;;4.55;100.00;102071.97;5022752;28;20413;-68
2023/12/27 00:40:22;;;;;;;;;;;;;;;4.55;100.00;102061.44;5018025;28;19925;-67
2023/12/27 00:42:48;;;;;;;;;;;;;;;4.59;100.00;102060.28;5018193;28;19921;-67
2023/12/27 00:45:14;;;;;;;;;;;;;;;4.66;100.00;102061.59;5014177;28;19939;-68
2023/12/27 00:47:39;;;;;;;;;;;;;;;4.70;100.00;102054.31;5017052;28;20340;-68
2023/12/27 00:50:04;;;;;;;;;;;;;;;4.74;100.00;102054.97;5013982;28;19918;-67
2023/12/27 00:52:30;;;;;;;;;;;;;;;4.76;100.00;102050.44;5026897;28;19971;-67
2023/12/27 00:54:55;;;;;;;;;;;;;;;4.76;100.00;102047.81;5018454;28;19929;-69
2023/12/27 00:57:20;;;;;;;;;;;;;;;4.77;100.00;102052.97;5018667;28;19925;-67
2023/12/27 00:59:46;;;;;;;;;;;;;;;4.79;100.00;102060.75;5016203;28;19941;-69
2023/12/27 01:02:11;;;;;;;;;;;;;;;4.77;100.00;102057.38;5015798;28;19920;-69
2023/12/27 01:04:36;;;;;;;;;;;;;;;4.78;100.00;102059.91;5018089;28;19975;-67
2023/12/27 01:07:01;;;;;;;;;;;;;;;4.80;100.00;102057.19;5013902;28;20023;-67
2023/12/27 01:09:27;;;;;;;;;;;;;;;4.79;100.00;102053.69;5014345;28;19928;-68
2023/12/27 01:11:52;;;;;;;;;;;;;;;4.80;100.00;102059.81;5015032;28;20298;-67
2023/12/27 01:14:19;;;;;;;;;;;;;;;4.82;100.00;102045.59;5012334;28;19921;-69
2023/12/27 01:16:44;;;;;;;;;;;;;;;4.76;100.00;102030.22;5021856;28;20382;-71
2023/12/27 01:19:10;;;;;;;;;;;;;;;4.83;100.00;102041.19;5007172;28;19917;-67
2023/12/27 01:21:35;;;;;;;;;;;;;;;4.83;100.00;102042.00;5022897;28;19923;-67
2023/12/27 01:24:00;;;;;;;;;;;;;;;4.83;100.00;102033.28;5010875;28;19920;-67
2023/12/27 01:26:25;;;;;;;;;;;;;;;4.78;100.00;102036.22;5012514;28;19928;-67
2023/12/27 01:28:50;;;;;;;;;;;;;;;4.73;100.00;102030.44;5017151;28;19925;-67
2023/12/27 01:31:16;;;;;;;;;;;;;;;4.68;100.00;102024.66;5014890;28;20681;-69
2023/12/27 01:33:41;;;;;;;;;;;;;;;4.63;100.00;102032.00;5017453;28;19928;-67
2023/12/27 01:36:07;;;;;;;;;;;;;;;4.60;100.00;102033.03;5011988;28;19980;-67
2023/12/27 01:38:32;;;;;;;;;;;;;;;4.59;100.00;102033.13;5015386;28;19921;-69
2023/12/27 01:40:57;;;;;;;;;;;;;;;4.59;100.00;102039.25;5021195;28;19928;-72
2023/12/27 01:43:22;;;;;;;;;;;;;;;4.58;100.00;102037.56;5016951;28;19980;-67
2023/12/27 01:45:49;;;;;;;;;;;;;;;4.59;100.00;102035.75;5018975;28;19940;-67
2023/12/27 01:48:15;;;;;;;;;;;;;;;4.58;100.00;102032.28;5016792;28;19921;-67
2023/12/27 01:50:40;;;;;;;;;;;;;;;4.58;100.00;102037.56;5015174;28;19935;-68
2023/12/27 01:53:08;;;;;;;;;;;;;;;4.57;100.00;102035.88;5015536;28;19954;-68
2023/12/27 01:55:33;;;;;;;;;;;;;;;4.58;100.00;102037.56;5011523;28;19979;-67
2023/12/27 01:58:00;;;;;;;;;;;;;;;4.56;100.00;102036.81;5010983;28;19924;-70
2023/12/27 02:00:25;;;;;;;;;;;;;;;4.60;100.00;102037.44;5020269;28;19970;-69
2023/12/27 02:02:51;;;;;;;;;;;;;;;4.62;100.00;102039.03;5017062;28;19921;-67
2023/12/27 02:05:16;;;;;;;;;;;;;;;4.62;100.00;102032.94;5016021;28;19975;-67
2023/12/27 02:07:42;;;;;;;;;;;;;;;4.61;100.00;102024.19;5014020;28;19922;-67
2023/12/27 02:10:07;;;;;;;;;;;;;;;4.59;100.00;102023.47;5012008;28;19927;-67
2023/12/27 02:12:33;;;;;;;;;;;;;;;4.57;100.00;102019.25;5008630;28;20016;-68
2023/12/27 02:14:58;;;;;;;;;;;;;;;4.54;100.00;102025.56;5010650;28;19924;-68
2023/12/27 02:17:25;;;;;;;;;;;;;;;4.52;100.00;102031.88;5012622;28;20003;-68
2023/12/27 02:19:51;;;;;;;;;;;;;;;4.51;100.00;102024.91;5015706;28;20768;-67
2023/12/27 02:22:18;;;;;;;;;;;;;;;4.50;100.00;102021.44;5011887;28;20540;-67
2023/12/27 02:24:44;;;;;;;;;;;;;;;4.50;100.00;102021.44;5019366;28;19975;-68
2023/12/27 02:27:09;;;;;;;;;;;;;;;4.49;100.00;102027.66;5018964;28;19925;-68
2023/12/27 02:29:34;;;;;;;;;;;;;;;4.50;100.00;102015.34;5019785;28;20492;-68
2023/12/27 02:31:59;;;;;;;;;;;;;;;4.51;100.00;102020.50;5021581;28;20317;-69
2023/12/27 02:34:25;;;;;;;;;;;;;;;4.50;100.00;102024.06;5019037;28;20357;-67
2023/12/27 02:36:50;;;;;;;;;;;;;;;4.51;100.00;102017.88;5025091;28;20635;-67
2023/12/27 02:39:15;;;;;;;;;;;;;;;4.52;100.00;102016.09;5021137;28;20509;-67
2023/12/27 02:41:41;;;;;;;;;;;;;;;4.53;100.00;102008.09;5022912;28;19917;-69
2023/12/27 02:44:06;;;;;;;;;;;;;;;4.52;100.00;102001.13;5017969;28;19917;-68
2023/12/27 02:46:32;;;;;;;;;;;;;;;4.53;100.00;102008.09;5017350;28;19921;-70
2023/12/27 02:48:58;;;;;;;;;;;;;;;4.52;100.00;102005.56;5018672;28;19922;-67
2023/12/27 02:51:23;;;;;;;;;;;;;;;4.51;100.00;101998.63;5021692;28;19928;-67
2023/12/27 02:53:48;;;;;;;;;;;;;;;4.53;100.00;101991.47;5019219;28;19928;-68
2023/12/27 02:56:13;;;;;;;;;;;;;;;4.53;100.00;101980.94;5019652;28;20020;-68
2023/12/27 02:58:39;;;;;;;;;;;;;;;4.54;100.00;101975.56;5013259;28;19944;-67
2023/12/27 03:01:05;;;;;;;;;;;;;;;4.52;100.00;101980.09;5009572;28;19963;-67
2023/12/27 03:03:30;;;;;;;;;;;;;;;4.52;100.00;101966.94;5018950;28;20016;-68
2023/12/27 03:05:55;;;;;;;;;;;;;;;4.51;100.00;101969.69;5017070;28;19925;-68
2023/12/27 03:08:20;;;;;;;;;;;;;;;4.50;100.00;101960.94;5020609;28;19921;-68
2023/12/27 03:10:45;;;;;;;;;;;;;;;4.51;100.00;101970.53;5015943;28;20020;-67
2023/12/27 03:13:11;;;;;;;;;;;;;;;4.52;100.00;101976.63;5013491;28;19928;-67
2023/12/27 03:15:37;;;;;;;;;;;;;;;4.53;100.00;101975.69;5017191;28;19921;-70
2023/12/27 03:18:02;;;;;;;;;;;;;;;4.52;100.00;101969.56;5020193;28;19928;-67
2023/12/27 03:20:28;;;;;;;;;;;;;;;4.55;100.00;101969.38;5015785;28;19917;-67
2023/12/27 03:22:53;;;;;;;;;;;;;;;4.55;100.00;101955.38;5018387;28;19917;-67
2023/12/27 03:25:18;;;;;;;;;;;;;;;4.55;100.00;101939.59;5017245;28;19936;-67
2023/12/27 03:27:43;;;;;;;;;;;;;;;4.54;100.00;101938.75;5020566;28;19992;-67
2023/12/27 03:30:09;;;;;;;;;;;;;;;4.54;100.00;101938.75;5017941;28;19944;-67
2023/12/27 03:32:34;;;;;;;;;;;;;;;4.58;100.00;101923.59;5016568;28;20656;-70
2023/12/27 03:34:59;;;;;;;;;;;;;;;4.58;100.00;101931.47;5019017;28;20301;-67
2023/12/27 03:37:24;;;;;;;;;;;;;;;4.58;100.00;101927.06;5014592;28;20433;-67
2023/12/27 03:39:51;;;;;;;;;;;;;;;4.55;100.00;101911.50;5018764;28;19925;-68
2023/12/27 03:42:19;;;;;;;;;;;;;;;4.62;100.00;101911.91;5017797;28;20491;-69
2023/12/27 03:44:44;;;;;;;;;;;;;;;4.62;100.00;101915.38;5019160;28;19932;-68
2023/12/27 03:47:09;;;;;;;;;;;;;;;4.65;100.00;101909.94;5015958;28;20325;-67
2023/12/27 03:49:34;;;;;;;;;;;;;;;4.66;100.00;101902.88;5012695;28;19925;-68
2023/12/27 03:52:00;;;;;;;;;;;;;;;4.68;100.00;101901.00;5011737;28;20425;-67
2023/12/27 03:54:25;;;;;;;;;;;;;;;4.70;100.00;101892.97;5010965;28;19921;-68
2023/12/27 03:56:50;;;;;;;;;;;;;;;4.71;100.00;101889.41;5014583;28;19922;-69
2023/12/27 03:59:15;;;;;;;;;;;;;;;4.71;100.00;101878.88;5011310;28;19968;-67
2023/12/27 04:01:40;;;;;;;;;;;;;;;4.72;100.00;101864.78;5007275;28;19945;-69
2023/12/27 04:04:07;;;;;;;;;;;;;;;4.72;100.00;101863.00;5016241;28;20020;-68
2023/12/27 04:06:32;;;;;;;;;;;;;;;4.67;100.00;101857.22;5011411;28;19925;-70
2023/12/27 04:08:57;;;;;;;;;;;;;;;4.71;100.00;101871.81;5011522;28;19967;-67
2023/12/27 04:11:22;;;;;;;;;;;;;;;4.73;100.00;101871.72;5008455;28;20418;-68
2023/12/27 04:13:48;;;;;;;;;;;;;;;4.73;100.00;101871.72;5016080;28;20290;-68
2023/12/27 04:16:13;;;;;;;;;;;;;;;4.76;100.00;101863.59;5008658;28;21557;-68
2023/12/27 04:18:38;;;;;;;;;;;;;;;4.78;100.00;101859.06;5012396;28;19921;-68
2023/12/27 04:21:03;;;;;;;;;;;;;;;4.79;100.00;101858.97;5008578;28;19925;-68
2023/12/27 04:23:29;;;;;;;;;;;;;;;4.80;100.00;101858.00;5017045;28;20016;-67
2023/12/27 04:25:55;;;;;;;;;;;;;;;4.81;100.00;101851.81;5017068;28;19952;-69
2023/12/27 04:28:20;;;;;;;;;;;;;;;4.82;100.00;101845.59;5010782;28;20302;-68
2023/12/27 04:30:45;;;;;;;;;;;;;;;4.83;100.00;101846.44;5006124;28;19922;-68
2023/12/27 04:33:10;;;;;;;;;;;;;;;4.83;100.00;101849.06;5009201;28;20039;-67
2023/12/27 04:35:35;;;;;;;;;;;;;;;4.84;100.00;101842.84;5013076;28;19921;-67
2023/12/27 04:38:01;;;;;;;;;;;;;;;4.85;100.00;101840.09;5016751;28;20413;-67
2023/12/27 04:40:26;;;;;;;;;;;;;;;4.87;100.00;101838.19;5020683;28;19925;-70
2023/12/27 04:42:52;;;;;;;;;;;;;;;4.88;100.00;101841.69;5017237;28;19921;-68
2023/12/27 04:45:17;;;;;;;;;;;;;;;4.90;100.00;101834.50;5020523;28;19925;-69
2023/12/27 04:47:42;;;;;;;;;;;;;;;4.92;100.00;101830.00;5020353;28;20322;-68
2023/12/27 04:50:08;;;;;;;;;;;;;;;4.93;100.00;101832.53;5016305;28;19975;-68
2023/12/27 04:52:33;;;;;;;;;;;;;;;4.96;100.00;101831.47;5025136;28;19920;-67
2023/12/27 04:54:58;;;;;;;;;;;;;;;4.98;100.00;101837.47;5015144;28;19921;-68
2023/12/27 04:57:24;;;;;;;;;;;;;;;5.02;100.00;101836.28;5016711;28;19928;-68
2023/12/27 04:59:49;;;;;;;;;;;;;;;5.05;100.00;101833.41;5013564;28;19963;-67
2023/12/27 05:02:14;;;;;;;;;;;;;;;5.14;100.00;101843.28;5014852;28;19999;-67
2023/12/27 05:04:39;;;;;;;;;;;;;;;5.14;100.00;101829.28;5017302;28;19921;-67
2023/12/27 05:07:05;;;;;;;;;;;;;;;5.15;100.00;101826.53;5014330;28;20440;-67
2023/12/27 05:09:30;;;;;;;;;;;;;;;5.15;100.00;101818.63;5012795;28;19918;-68
2023/12/27 05:11:55;;;;;;;;;;;;;;;5.20;100.00;101819.16;5012806;28;19975;-67
2023/12/27 05:14:20;;;;;;;;;;;;;;;5.20;100.00;101811.25;5015435;28;20008;-67
2023/12/27 05:16:46;;;;;;;;;;;;;;;5.17;100.00;101805.34;5015353;28;21022;-67
2023/12/27 05:19:11;;;;;;;;;;;;;;;5.19;100.00;101800.81;5014954;28;20692;-67
2023/12/27 05:21:36;;;;;;;;;;;;;;;5.22;100.00;101793.56;5016750;28;20691;-68
2023/12/27 05:24:02;;;;;;;;;;;;;;;5.26;100.00;101795.00;5018063;28;19921;-67
2023/12/27 05:26:27;;;;;;;;;;;;;;;5.24;100.00;101788.19;5014347;28;19929;-67
2023/12/27 05:28:52;;;;;;;;;;;;;;;5.28;100.00;101784.38;5014484;28;20012;-69
2023/12/27 05:31:18;;;;;;;;;;;;;;;5.33;100.00;101774.31;5014532;28;19944;-68
2023/12/27 05:33:43;;;;;;;;;;;;;;;5.26;100.00;101783.63;5009821;28;19925;-68
2023/12/27 05:36:09;;;;;;;;;;;;;;;5.27;100.00;101783.53;5016588;28;20592;-67
2023/12/27 05:38:34;;;;;;;;;;;;;;;5.25;100.00;101790.69;5012540;28;19921;-69
2023/12/27 05:41:00;;;;;;;;;;;;;;;5.29;100.00;101783.41;5014498;28;19928;-67
2023/12/27 05:43:25;;;;;;;;;;;;;;;5.27;100.00;101786.16;5013950;28;20684;-68
2023/12/27 05:45:50;;;;;;;;;;;;;;;5.26;100.00;101786.28;5015093;28;19964;-67
2023/12/27 05:48:15;;;;;;;;;;;;;;;5.32;100.00;101784.97;5016402;28;19928;-67
2023/12/27 05:50:41;;;;;;;;;;;;;;;5.29;100.00;101775.50;5008601;28;19928;-68
2023/12/27 05:53:06;;;;;;;;;;;;;;;5.32;100.00;101769.16;5016576;28;19917;-68
2023/12/27 05:55:31;;;;;;;;;;;;;;;5.31;100.00;101765.69;5019159;28;19921;-68
2023/12/27 05:57:56;;;;;;;;;;;;;;;5.24;100.00;101762.69;5011986;28;20020;-67
2023/12/27 06:00:22;;;;;;;;;;;;;;;5.28;100.00;101760.66;5016337;28;19920;-67
2023/12/27 06:02:47;;;;;;;;;;;;;;;5.22;100.00;101756.69;5013956;28;19931;-67
2023/12/27 06:05:12;;;;;;;;;;;;;;;5.23;100.00;101754.91;5015363;28;19929;-67
2023/12/27 06:07:37;;;;;;;;;;;;;;;5.20;100.00;101745.44;5017286;28;19967;-67
2023/12/27 06:10:03;;;;;;;;;;;;;;;5.24;100.00;101746.03;5007777;28;19926;-67
2023/12/27 06:12:28;;;;;;;;;;;;;;;5.26;100.00;101744.97;5009766;28;19990;-67
2023/12/27 06:14:53;;;;;;;;;;;;;;;5.29;100.00;101736.00;5011158;28;19921;-67
2023/12/27 06:17:18;;;;;;;;;;;;;;;5.32;100.00;101729.66;5007494;28;19921;-67
2023/12/27 06:19:44;;;;;;;;;;;;;;;5.27;100.00;101724.75;5014916;28;19929;-67
2023/12/27 06:22:09;;;;;;;;;;;;;;;5.33;100.00;101726.91;5015807;28;19925;-69
2023/12/27 06:24:34;;;;;;;;;;;;;;;5.39;100.00;101728.25;5012422;28;20417;-67
2023/12/27 06:26:59;;;;;;;;;;;;;;;5.30;100.00;101711.34;5016219;28;20287;-67
2023/12/27 06:29:24;;;;;;;;;;;;;;;5.35;100.00;101714.47;5015717;28;19921;-67
2023/12/27 06:31:50;;;;;;;;;;;;;;;5.34;100.00;101712.78;5014983;28;19963;-67
2023/12/27 06:34:17;;;;;;;;;;;;;;;5.36;100.00;101708.25;5010654;28;19928;-67
2023/12/27 06:36:42;;;;;;;;;;;;;;;5.37;100.00;101698.56;5022279;28;20041;-69
2023/12/27 06:39:07;;;;;;;;;;;;;;;5.32;100.00;101687.53;5020104;28;20051;-67
2023/12/27 06:41:33;;;;;;;;;;;;;;;5.32;100.00;101685.72;5019091;28;19928;-68
2023/12/27 06:43:58;;;;;;;;;;;;;;;5.32;100.00;101683.09;5015239;28;19921;-67
2023/12/27 06:46:23;;;;;;;;;;;;;;;5.37;100.00;101678.31;5020645;28;19924;-67
2023/12/27 06:48:49;;;;;;;;;;;;;;;5.35;100.00;101676.75;5022574;28;20035;-67
2023/12/27 06:51:14;;;;;;;;;;;;;;;5.32;100.00;101663.81;5016784;28;20409;-67
2023/12/27 06:53:39;;;;;;;;;;;;;;;5.31;100.00;101663.00;5017220;28;20488;-67
2023/12/27 06:56:04;;;;;;;;;;;;;;;5.31;100.00;101660.34;5017111;28;19929;-68
2023/12/27 06:58:30;;;;;;;;;;;;;;;5.33;100.00;101654.97;5019550;28;20463;-66
2023/12/27 07:00:55;;;;;;;;;;;;;;;5.37;100.00;101661.69;5019820;28;20579;-67
2023/12/27 07:03:20;;;;;;;;;;;;;;;5.32;100.00;101648.88;5014657;28;20330;-67
2023/12/27 07:05:45;;;;;;;;;;;;;;;5.35;100.00;101656.53;5017628;28;19940;-67
2023/12/27 07:08:11;;;;;;;;;;;;;;;5.32;100.00;101658.56;5021716;28;19924;-67
2023/12/27 07:10:36;;;;;;;;;;;;;;;5.47;100.00;101657.38;5022854;28;19928;-68
2023/12/27 07:13:01;;;;;;;;;;;;;;;5.41;100.00;101652.59;5014837;28;20661;-66
2023/12/27 07:15:27;;;;;;;;;;;;;;;5.44;100.00;101647.91;5011701;28;19929;-67
2023/12/27 07:17:52;;;;;;;;;;;;;;;5.48;100.00;101645.88;5018234;28;19932;-67
2023/12/27 07:20:17;;;;;;;;;;;;;;;5.47;100.00;101645.03;5018711;28;20301;-67
2023/12/27 07:22:42;;;;;;;;;;;;;;;5.54;100.00;101641.00;5015433;28;20394;-67
2023/12/27 07:25:08;;;;;;;;;;;;;;;5.53;100.00;101649.03;5022206;28;20365;-67
2023/12/27 07:27:33;;;;;;;;;;;;;;;5.49;100.00;101645.78;5014434;28;20696;-67
2023/12/27 07:29:58;;;;;;;;;;;;;;;5.60;100.00;101634.41;5020984;28;19928;-66
2023/12/27 07:32:23;;;;;;;;;;;;;;;5.59;100.00;101635.38;5012333;28;19932;-67
2023/12/27 07:34:49;;;;;;;;;;;;;;;5.56;100.00;101643.50;5023230;28;19922;-67
2023/12/27 07:37:14;;;;;;;;;;;;;;;5.56;100.00;101649.63;5016079;28;19924;-67
2023/12/27 07:39:40;;;;;;;;;;;;;;;5.57;100.00;101632.84;5012736;28;19921;-67
2023/12/27 07:42:05;;;;;;;;;;;;;;;5.57;100.00;101651.31;5016637;28;19921;-67
2023/12/27 07:44:30;;;;;;;;;;;;;;;5.59;100.00;101640.63;5017535;28;19925;-67
2023/12/27 07:46:55;;;;;;;;;;;;;;;5.63;100.00;101644.72;5018891;28;19963;-67
2023/12/27 07:49:21;;;;;;;;;;;;;;;5.70;100.00;101639.78;5012648;28;19925;-67
2023/12/27 07:51:46;;;;;;;;;;;;;;;5.70;100.00;101635.38;5015509;28;19928;-68
2023/12/27 07:54:11;;;;;;;;;;;;;;;5.74;100.00;101631.53;5019623;28;19928;-67
2023/12/27 07:56:37;;;;;;;;;;;;;;;5.75;100.00;101638.47;5016463;28;19922;-67
2023/12/27 07:59:03;;;;;;;;;;;;;;;5.79;100.00;101631.19;5021535;28;19928;-67
2023/12/27 08:01:31;;;;;;;;;;;;;;;5.81;100.00;101630.13;5020104;28;20008;-66
2023/12/27 08:03:56;;;;;;;;;;;;;;;5.88;100.00;101625.19;5017968;28;20492;-67
2023/12/27 08:06:21;;;;;;;;;;;;;;;5.90;100.00;101632.06;5015252;28;20036;-67
2023/12/27 08:08:47;;;;;;;;;;;;;;;5.93;100.00;101627.50;5017690;28;20598;-66
2023/12/27 08:11:12;;;;;;;;;;;;;;;5.97;100.00;101623.66;5029341;28;19921;-67
2023/12/27 08:13:38;;;;;;;;;;;;;;;6.00;100.00;101621.59;5014978;28;19925;-66
2023/12/27 08:16:03;;;;;;;;;;;;;;;6.03;100.00;101616.09;5013512;28;19921;-67
2023/12/27 08:18:29;;;;;;;;;;;;;;;6.09;100.00;101617.41;5018120;28;19971;-67
2023/12/27 08:20:54;;;;;;;;;;;;;;;6.10;100.00;101625.22;5013922;28;19921;-67
2023/12/27 08:23:19;;;;;;;;;;;;;;;6.14;100.00;101613.44;5012942;28;20703;-67
2023/12/27 08:25:45;;;;;;;;;;;;;;;6.18;100.00;101601.69;5015402;28;20472;-67
2023/12/27 08:28:11;;;;;;;;;;;;;;;6.25;100.00;101593.28;5009099;28;20008;-66
2023/12/27 08:30:36;;;;;;;;;;;;;;;6.28;100.00;101593.03;5018309;28;19947;-67
2023/12/27 08:33:03;;;;;;;;;;;;;;;6.32;100.00;101590.00;5008663;28;19969;-68
2023/12/27 08:35:28;;;;;;;;;;;;;;;6.40;100.00;101574.41;5002913;28;20279;-67
2023/12/27 08:37:54;;;;;;;;;;;;;;;6.42;100.00;101571.66;5010794;28;19967;-67
2023/12/27 08:40:19;;;;;;;;;;;;;;;6.41;100.00;101576.09;5010209;28;20501;-67
2023/12/27 08:42:44;;;;;;;;;;;;;;;6.46;100.00;101579.19;5007236;28;20283;-67
2023/12/27 08:45:11;;;;;;;;;;;;;;;6.46;100.00;101566.00;5015147;28;19929;-67
2023/12/27 08:47:36;;;;;;;;;;;;;;;6.50;100.00;101550.75;5019988;28;20581;-67
2023/12/27 08:50:01;;;;;;;;;;;;;;;6.49;100.00;101573.66;5017316;28;20004;-68
2023/12/27 08:52:27;;;;;;;;;;;;;;;6.52;100.00;101568.13;5014811;28;19925;-68
2023/12/27 08:54:52;;;;;;;;;;;;;;;6.54;100.00;101565.34;5004001;28;19917;-68
2023/12/27 08:57:17;;;;;;;;;;;;;;;6.58;100.00;101564.13;5012946;28;19921;-68
2023/12/27 08:59:43;;;;;;;;;;;;;;;6.61;100.00;101547.19;5018992;28;19931;-68
2023/12/27 09:02:09;;;;;;;;;;;;;;;6.64;100.00;101546.94;5020000;28;19924;-68
2023/12/27 09:04:34;;;;;;;;;;;;;;;6.68;100.00;101553.66;5016513;28;19928;-73
2023/12/27 09:06:59;;;;;;;;;;;;;;;6.67;100.00;101539.63;5016760;28;19927;-69
2023/12/27 09:09:24;;;;;;;;;;;;;;;6.73;100.00;101538.28;5015038;28;19928;-68
2023/12/27 09:11:50;;;;;;;;;;;;;;;6.75;100.00;101536.34;5018580;28;19996;-68
2023/12/27 09:14:15;;;;;;;;;;;;;;;6.76;100.00;101540.66;5015305;28;19932;-68
2023/12/27 09:16:40;;;;;;;;;;;;;;;6.79;100.00;101556.25;5013959;28;20008;-68
2023/12/27 09:19:05;;;;;;;;;;;;;;;6.82;100.00;101548.06;5015449;28;19921;-68
2023/12/27 09:21:31;;;;;;;;;;;;;;;6.86;100.00;101530.16;5018367;28;20530;-68
2023/12/27 09:23:57;;;;;;;;;;;;;;;6.89;100.00;101525.44;5015233;28;19921;-68
2023/12/27 09:26:22;;;;;;;;;;;;;;;6.95;100.00;101524.13;5012253;28;20488;-67
2023/12/27 09:28:47;;;;;;;;;;;;;;;6.99;100.00;101517.59;5018202;28;19961;-68
2023/12/27 09:31:13;;;;;;;;;;;;;;;7.01;100.00;101527.06;5017968;28;21288;-69
2023/12/27 09:33:42;;;;;;;;;;;;;;;7.05;100.00;101520.56;5015302;28;20414;-68
2023/12/27 09:36:07;;;;;;;;;;;;;;;7.09;100.00;101506.09;5013085;28;19920;-69
2023/12/27 09:38:33;;;;;;;;;;;;;;;7.13;100.00;101499.59;5014892;28;19917;-68
2023/12/27 09:40:58;;;;;;;;;;;;;;;7.18;100.00;101508.91;5014827;28;19924;-68
2023/12/27 09:43:24;;;;;;;;;;;;;;;7.22;100.00;101510.31;5017429;28;19925;-68
2023/12/27 09:45:51;;;;;;;;;;;;;;;7.25;100.00;101499.53;5009268;28;19932;-68
2023/12/27 09:48:18;;;;;;;;;;;;;;;7.28;100.00;101515.09;5012451;28;19929;-68
2023/12/27 09:50:43;;;;;;;;;;;;;;;7.30;100.00;101521.94;5016552;28;20625;-70
2023/12/27 09:53:09;;;;;;;;;;;;;;;7.34;100.00;101506.63;5014943;28;20471;-73
2023/12/27 09:55:34;;;;;;;;;;;;;;;7.34;100.00;101506.63;5012443;28;19929;-69
2023/12/27 09:57:59;;;;;;;;;;;;;;;7.39;100.00;101515.84;5012402;28;20346;-68
2023/12/27 10:00:27;;;;;;;;;;;;;;;7.39;100.00;101513.19;5017308;28;19975;-68
2023/12/27 10:02:58;;;;;;;;;;;;;;;7.42;100.00;101512.09;5016440;28;19929;-68
2023/12/27 10:05:26;;;;;;;;;;;;;;;7.44;100.00;101513.63;5014388;28;19925;-69
2023/12/27 10:07:52;;;;;;;;;;;;;;;7.47;100.00;101512.50;5020019;28;20728;-69
2023/12/27 10:10:18;;;;;;;;;;;;;;;7.47;100.00;101500.13;5020190;28;19925;-68
2023/12/27 10:12:43;;;;;;;;;;;;;;;7.50;100.00;101504.31;5022435;28;19971;-68
2023/12/27 10:15:09;;;;;;;;;;;;;;;7.51;100.00;101498.06;5018946;28;20563;-68
2023/12/27 10:17:34;;;;;;;;;;;;;;;7.53;100.00;101488.22;5019439;28;19929;-68
2023/12/27 10:19:59;;;;;;;;;;;;;;;7.55;100.00;101488.09;5017227;28;19952;-68
2023/12/27 10:22:26;;;;;;;;;;;;;;;7.57;100.00;101488.78;5015507;28;20032;-68
2023/12/27 10:24:52;;;;;;;;;;;;;;;7.58;100.00;101491.28;5016866;28;19940;-70
2023/12/27 10:27:17;;;;;;;;;;;;;;;7.61;100.00;101491.00;5015892;28;20443;-70
2023/12/27 10:29:48;;;;;;;;;;;;;;;7.63;100.00;101480.31;5014020;28;19952;-69
2023/12/27 10:32:14;;;;;;;;;;;;;;;7.66;100.00;101474.75;5013443;28;19956;-68
2023/12/27 10:34:40;;;;;;;;;;;;;;;7.70;100.00;101476.13;5021679;28;20071;-68
2023/12/27 10:37:11;;;;;;;;;;;;;;;7.71;100.00;101470.72;5012558;28;20420;-68
2023/12/27 10:39:38;;;;;;;;;;;;;;;7.74;100.00;101461.66;5013808;28;19921;-69
2023/12/27 10:42:05;;;;;;;;;;;;;;;7.77;100.00;101456.94;5018202;28;19921;-68
2023/12/27 10:44:31;;;;;;;;;;;;;;;7.83;100.00;101445.00;5010374;28;19933;-69
2023/12/27 10:46:57;;;;;;;;;;;;;;;7.85;100.00;101435.13;5013601;28;19921;-70
2023/12/27 10:49:24;;;;;;;;;;;;;;;7.89;100.00;101454.19;5009713;28;19921;-69
2023/12/27 10:51:51;;;;;;;;;;;;;;;7.92;100.00;101456.56;5022424;28;20319;-70
2023/12/27 10:54:18;;;;;;;;;;;;;;;7.96;100.00;101450.84;5012835;28;19932;-69
2023/12/27 10:56:45;;;;;;;;;;;;;;;7.99;100.00;101439.16;5015699;28;19922;-68
2023/12/27 10:59:11;;;;;;;;;;;;;;;8.03;100.00;101422.84;5013786;28;20401;-71
2023/12/27 11:01:38;;;;;;;;;;;;;;;8.07;100.00;101423.41;5013284;28;20457;-70
2023/12/27 11:04:08;;;;;;;;;;;;;;;8.11;100.00;101416.91;5013830;28;19928;-68
2023/12/27 11:06:35;;;;;;;;;;;;;;;8.21;100.00;101417.72;5017328;28;19929;-69
2023/12/27 11:09:00;;;;;;;;;;;;;;;8.25;100.00;101411.16;5022133;28;19925;-68
2023/12/27 11:11:27;;;;;;;;;;;;;;;8.37;100.00;101409.19;5023427;28;19968;-68
2023/12/27 11:13:52;;;;;;;;;;;;;;;8.37;100.00;101404.75;5017152;28;20008;-69
2023/12/27 11:16:20;;;;;;;;;;;;;;;8.43;100.00;101406.00;5018547;28;20012;-68
2023/12/27 11:18:46;;;;;;;;;;;;;;;8.48;100.00;101402.94;5015281;28;20405;-69
2023/12/27 11:21:11;;;;;;;;;;;;;;;8.47;100.00;101398.63;5014022;28;19922;-73
2023/12/27 11:23:36;;;;;;;;;;;;;;;8.48;100.00;101397.63;5014505;28;19921;-68
2023/12/27 11:26:04;;;;;;;;;;;;;;;8.53;100.00;101398.03;5016390;28;20020;-73
2023/12/27 11:28:32;;;;;;;;;;;;;;;8.61;100.00;101396.34;5020878;28;19983;-68
2023/12/27 11:30:58;;;;;;;;;;;;;;;8.62;100.00;101397.16;5015590;28;19933;-72
2023/12/27 11:33:23;;;;;;;;;;;;;;;8.64;100.00;101381.97;5014444;28;19932;-71
2023/12/27 11:35:50;;;;;;;;;;;;;;;8.62;100.00;101368.88;5009676;28;19921;-69
2023/12/27 11:38:20;;;;;;;;;;;;;;;8.62;100.00;101368.88;5010782;28;20441;-69
2023/12/27 11:40:45;;;;;;;;;;;;;;;8.64;100.00;101366.91;5006983;28;19926;-68
2023/12/27 11:43:20;;;;;;;;;;;;;;;8.63;100.00;101361.78;5019976;28;20402;-74
2023/12/27 11:46:06;;;;;;;;;;;;;;;8.62;100.00;101357.44;5017827;28;19929;-68
2023/12/27 11:48:38;;;;;;;;;;;;;;;8.64;100.00;101353.69;5018328;28;20144;-70
2023/12/27 11:51:22;;;;;;;;;;;;;;;8.70;100.00;101352.28;5020807;28;19925;-70
2023/12/27 11:53:47;;;;;;;;;;;;;;;8.71;100.00;101342.53;5013145;28;20019;-72
2023/12/27 11:56:12;;;;;;;;;;;;;;;8.73;100.00;101343.22;5014886;28;20551;-73
2023/12/27 11:58:39;;;;;;;;;;;;;;;8.75;100.00;101354.50;5015604;28;19924;-71
2023/12/27 12:01:23;;;;;;;;;;;;;;;8.76;100.00;101338.47;5009540;28;20350;-68
2023/12/27 12:03:54;;;;;;;;;;;;;;;8.73;100.00;101317.56;5007618;28;19922;-68
2023/12/27 12:06:36;;;;;;;;;;;;;;;8.73;100.00;101322.88;5005053;28;20107;-68
2023/12/27 12:09:02;;;;;;;;;;;;;;;8.76;100.00;101324.38;5008212;28;20327;-68
2023/12/27 12:11:27;;;;;;;;;;;;;;;8.74;100.00;101315.75;5017488;28;19928;-69
2023/12/27 12:13:53;;;;;;;;;;;;;;;8.73;100.00;101312.28;5022714;28;20549;-70
2023/12/27 12:16:18;;;;;;;;;;;;;;;8.72;100.00;101300.03;5021407;28;19917;-68
2023/12/27 12:18:44;;;;;;;;;;;;;;;8.73;100.00;101283.16;5019275;28;19925;-68
2023/12/27 12:21:09;;;;;;;;;;;;;;;8.74;100.00;101268.09;5010861;28;19963;-68
2023/12/27 12:23:34;;;;;;;;;;;;;;;8.70;100.00;101254.31;5008470;28;20807;-68
2023/12/27 12:26:01;;;;;;;;;;;;;;;8.74;100.00;101260.97;5015625;28;19959;-68
2023/12/27 12:28:27;;;;;;;;;;;;;;;8.73;100.00;101261.13;5013318;28;19921;-71